Time;durP1;ratioP1;P1;durP2;ratioP2;P2;SDS_P1;SDS_P2;PMS_P1;PMS_P2;Temp;Humidity;BMP_temperature;BMP_pressure;BME280_temperature;BME280_humidity;BME280_pressure;Samples;Min_cycle;Max_cycle;Signal;HPM_P1;HPM_P2
2022/08/20 00:02:15;;;;;;;8.77;8.07;;;;;;;19.87;96.35;95493.66;4936441;29;20892;-83
2022/08/20 00:04:41;;;;;;;9.48;8.57;;;;;;;19.89;96.88;95487.16;4936937;29;20237;-84
2022/08/20 00:07:08;;;;;;;8.68;7.97;;;;;;;19.97;96.22;95493.84;4936948;29;20205;-82
2022/08/20 00:09:34;;;;;;;8.20;7.60;;;;;;;19.97;96.17;95483.38;4936640;29;20205;-82
2022/08/20 00:12:01;;;;;;;8.60;7.90;;;;;;;19.91;95.97;95500.78;4936396;29;20308;-84
2022/08/20 00:14:27;;;;;;;9.85;9.05;;;;;;;19.89;96.82;95496.81;4936744;29;20305;-83
2022/08/20 00:16:54;;;;;;;9.65;8.90;;;;;;;19.89;96.94;95507.28;4936408;29;20697;-82
2022/08/20 00:19:22;;;;;;;11.10;10.10;;;;;;;19.93;97.13;95496.13;4936248;29;20253;-81
2022/08/20 00:21:48;;;;;;;9.75;8.95;;;;;;;19.88;96.52;95498.66;4935244;29;20574;-82
2022/08/20 00:24:15;;;;;;;10.27;9.38;;;;;;;19.87;96.71;95497.06;4936289;28;20643;-83
2022/08/20 00:26:41;;;;;;;9.75;8.95;;;;;;;19.89;96.53;95502.06;4936781;29;20836;-84
2022/08/20 00:29:08;;;;;;;9.77;9.05;;;;;;;19.96;96.10;95500.88;4936104;29;20236;-82
2022/08/20 00:31:34;;;;;;;9.93;9.02;;;;;;;19.97;95.76;95502.47;4935685;29;20218;-83
2022/08/20 00:34:00;;;;;;;12.50;11.40;;;;;;;19.99;95.36;95503.03;4935667;28;20237;-83
2022/08/20 00:36:28;;;;;;;10.55;9.65;;;;;;;20.04;95.55;95494.44;4935212;29;20649;-83
2022/08/20 00:38:55;;;;;;;10.80;9.70;;;;;;;19.86;96.27;95498.09;4936421;29;20241;-82
2022/08/20 00:41:25;;;;;;;11.13;10.15;;;;;;;19.73;97.08;95497.59;4935482;29;20226;-82
2022/08/20 00:44:05;;;;;;;11.13;10.02;;;;;;;19.67;97.67;95494.91;4935822;28;20225;-83
2022/08/20 00:46:33;;;;;;;11.32;10.35;;;;;;;19.76;97.83;95505.78;4935820;29;20210;-83
2022/08/20 00:49:02;;;;;;;12.32;11.25;;;;;;;19.80;97.19;95499.06;4935900;29;20631;-82
2022/08/20 00:51:33;;;;;;;11.55;10.60;;;;;;;19.84;97.15;95499.34;4934295;29;20271;-82
2022/08/20 00:54:05;;;;;;;12.77;11.48;;;;;;;19.81;96.23;95502.47;4935461;29;20233;-83
2022/08/20 00:56:33;;;;;;;12.50;11.40;;;;;;;19.73;96.88;95495.00;4935549;29;20206;-82
2022/08/20 00:59:00;;;;;;;12.63;11.55;;;;;;;19.73;96.91;95495.00;4935692;29;20288;-81
2022/08/20 01:01:27;;;;;;;12.18;11.18;;;;;;;19.78;96.57;95501.09;4934492;29;20352;-84
2022/08/20 01:03:55;;;;;;;12.57;11.45;;;;;;;19.84;96.69;95502.75;4935548;29;20232;-82
2022/08/20 01:06:23;;;;;;;13.60;12.50;;;;;;;19.84;96.30;95501.97;4935464;29;20206;-82
2022/08/20 01:08:51;;;;;;;12.82;11.73;;;;;;;19.82;95.89;95501.44;4935285;29;20213;-83
2022/08/20 01:11:21;;;;;;;13.02;11.80;;;;;;;19.76;96.42;95497.13;4934644;29;20250;-81
2022/08/20 01:13:48;;;;;;;13.45;12.32;;;;;;;19.67;97.72;95497.50;4934968;29;20238;-83
2022/08/20 01:16:21;;;;;;;12.75;11.73;;;;;;;19.71;97.16;95505.69;4935319;29;20209;-83
2022/08/20 01:18:50;;;;;;;13.25;11.95;;;;;;;19.75;97.68;95508.63;4935904;29;20201;-82
2022/08/20 01:21:22;;;;;;;12.55;11.55;;;;;;;19.82;97.84;95501.44;4935080;29;20639;-83
2022/08/20 01:23:55;;;;;;;13.88;12.68;;;;;;;19.74;98.48;95499.97;4935228;28;20229;-81
2022/08/20 01:26:26;;;;;;;13.75;12.52;;;;;;;19.77;98.84;95496.91;4935446;29;20257;-82
2022/08/20 01:28:55;;;;;;;13.68;12.50;;;;;;;19.75;98.91;95500.78;4935096;29;20210;-82
2022/08/20 01:31:31;;;;;;;13.90;12.70;;;;;;;19.75;99.35;95506.78;5099062;27;1205568;-83
2022/08/20 01:33:59;;;;;;;13.50;12.32;;;;;;;19.77;99.11;95503.94;5120708;28;20488;-82
2022/08/20 01:36:31;;;;;;;13.90;12.68;;;;;;;19.81;99.57;95515.53;5090081;28;20556;-82
2022/08/20 01:38:57;;;;;;;13.52;12.40;;;;;;;19.88;99.14;95511.72;5089710;28;20219;-82
2022/08/20 01:41:45;;;;;;;13.93;12.73;;;;;;;19.80;99.66;95503.47;5089091;28;20212;-84
2022/08/20 01:44:13;;;;;;;13.55;12.45;;;;;;;19.76;99.82;95503.16;5089476;28;20666;-81
2022/08/20 01:46:43;;;;;;;14.32;13.13;;;;;;;19.77;100.00;95509.97;5089086;28;20249;-83
2022/08/20 01:49:13;;;;;;;15.07;13.57;;;;;;;19.80;100.00;95511.31;5089314;28;20250;-83
2022/08/20 01:51:40;;;;;;;14.95;13.55;;;;;;;19.82;100.00;95511.88;5088364;28;20833;-83
2022/08/20 01:54:07;;;;;;;14.57;13.27;;;;;;;19.76;100.00;95515.44;5089787;28;20235;-83
2022/08/20 01:56:35;;;;;;;14.50;13.18;;;;;;;19.77;100.00;95514.41;5089786;28;20254;-83
2022/08/20 01:59:05;;;;;;;15.13;13.80;;;;;;;19.79;100.00;95515.75;5089851;28;20211;-83
2022/08/20 02:01:35;;;;;;;15.07;13.80;;;;;;;19.71;100.00;95515.34;5089363;28;20238;-83
2022/08/20 02:04:05;;;;;;;15.85;14.43;;;;;;;19.72;100.00;95509.09;5089940;28;20277;-83
2022/08/20 02:06:33;;;;;;;14.88;13.57;;;;;;;19.71;100.00;95513.50;5090209;28;20226;-84
2022/08/20 02:09:01;;;;;;;15.32;14.02;;;;;;;19.68;100.00;95513.97;5090403;28;20257;-83
2022/08/20 02:11:29;;;;;;;15.68;14.32;;;;;;;19.67;100.00;95526.25;5089137;28;20779;-83
2022/08/20 02:13:57;;;;;;;15.85;14.38;;;;;;;19.74;100.00;95527.94;5089792;28;20723;-82
2022/08/20 02:16:27;;;;;;;15.82;14.48;;;;;;;19.62;100.00;95534.00;5090153;28;20200;-83
2022/08/20 02:18:57;;;;;;;16.08;14.68;;;;;;;19.63;100.00;95530.34;5090224;28;20253;-83
2022/08/20 02:21:28;;;;;;;16.33;14.90;;;;;;;19.62;100.00;95533.22;5089143;28;20295;-84
2022/08/20 02:23:55;;;;;;;15.88;14.55;;;;;;;19.58;100.00;95538.13;5089897;28;20228;-84
2022/08/20 02:26:22;;;;;;;16.92;15.43;;;;;;;19.56;100.00;95536.75;5089867;28;20205;-84
2022/08/20 02:28:50;;;;;;;15.90;14.27;;;;;;;19.62;100.00;95531.41;5090220;28;20253;-83
2022/08/20 02:31:17;;;;;;;16.50;15.00;;;;;;;19.60;100.00;95532.66;5089785;28;20232;-83
2022/08/20 02:33:44;;;;;;;17.00;15.55;;;;;;;19.64;100.00;95529.31;5090239;28;20269;-84
2022/08/20 02:36:12;;;;;;;17.00;15.43;;;;;;;19.62;100.00;95528.00;5090219;28;20206;-83
2022/08/20 02:38:40;;;;;;;17.02;15.10;;;;;;;19.66;100.00;95529.09;5090262;28;20287;-83
2022/08/20 02:41:07;;;;;;;16.60;15.10;;;;;;;19.66;100.00;95532.50;5086187;28;20639;-83
2022/08/20 02:43:34;;;;;;;16.77;15.23;;;;;;;19.60;100.00;95532.66;5075925;28;20227;-83
2022/08/20 02:46:01;;;;;;;16.63;15.13;;;;;;;19.54;100.00;95523.94;5076276;28;20699;-83
2022/08/20 02:48:28;;;;;;;17.15;15.65;;;;;;;19.53;100.00;95535.41;5076420;28;20600;-83
2022/08/20 02:50:59;;;;;;;16.95;15.35;;;;;;;19.53;100.00;95534.59;5076157;28;20247;-83
2022/08/20 02:53:26;;;;;;;16.13;14.73;;;;;;;19.60;100.00;95532.66;5075971;28;20192;-84
2022/08/20 02:55:54;;;;;;;16.88;15.27;;;;;;;19.60;100.00;95543.91;5074847;28;20197;-83
2022/08/20 02:58:21;;;;;;;15.95;14.55;;;;;;;19.60;100.00;95538.69;5075267;28;20205;-83
2022/08/20 03:00:49;;;;;;;16.10;14.68;;;;;;;19.64;100.00;95531.94;5075355;28;20262;-83
2022/08/20 03:03:21;;;;;;;16.15;14.75;;;;;;;19.66;100.00;95539.53;5076385;28;20205;-83
2022/08/20 03:05:48;;;;;;;15.82;14.52;;;;;;;19.72;100.00;95527.38;5075085;28;20225;-83
2022/08/20 03:08:15;;;;;;;15.63;14.23;;;;;;;19.70;100.00;95535.44;5075017;28;20295;-83
2022/08/20 03:10:44;;;;;;;16.42;14.93;;;;;;;19.65;100.00;95537.94;5074945;28;20286;-83
2022/08/20 03:13:13;;;;;;;16.63;15.18;;;;;;;19.62;100.00;95539.25;5075484;28;20288;-83
2022/08/20 03:15:41;;;;;;;15.40;14.07;;;;;;;19.67;100.00;95538.50;5074501;28;20235;-83
2022/08/20 03:18:08;;;;;;;16.35;14.85;;;;;;;19.66;100.00;95540.34;5073558;28;20252;-83
2022/08/20 03:20:35;;;;;;;16.67;15.10;;;;;;;19.76;100.00;95542.34;5074498;28;20208;-84
2022/08/20 03:23:01;;;;;;;16.77;15.27;;;;;;;19.78;100.00;95550.75;5075205;28;20227;-84
2022/08/20 03:25:28;;;;;;;16.13;14.73;;;;;;;19.79;100.00;95546.31;5074368;28;20228;-82
2022/08/20 03:27:55;;;;;;;15.43;14.05;;;;;;;19.87;100.00;95543.31;5075253;28;20203;-84
2022/08/20 03:30:26;;;;;;;16.45;14.95;;;;;;;19.78;100.00;95542.91;5074224;28;20261;-84
2022/08/20 03:32:53;;;;;;;16.33;14.73;;;;;;;19.81;100.00;95552.09;5075665;28;20205;-83
2022/08/20 03:35:22;;;;;;;16.27;14.70;;;;;;;19.82;100.00;95557.06;5073935;28;20281;-83
2022/08/20 03:37:48;;;;;;;16.27;14.88;;;;;;;19.78;100.00;95555.19;5074904;28;20567;-84
2022/08/20 03:40:18;;;;;;;16.33;14.35;;;;;;;19.75;100.00;95553.81;5074431;28;20270;-82
2022/08/20 03:42:45;;;;;;;16.35;14.75;;;;;;;19.77;100.00;95556.22;5074248;28;20200;-84
2022/08/20 03:45:14;;;;;;;16.67;14.98;;;;;;;19.74;100.00;95556.66;5073936;28;20286;-83
2022/08/20 03:47:42;;;;;;;15.93;14.32;;;;;;;19.78;100.00;95555.19;5074574;28;20205;-83
2022/08/20 03:50:10;;;;;;;16.55;15.00;;;;;;;19.77;100.00;95564.03;5073397;28;20220;-83
2022/08/20 03:52:37;;;;;;;16.40;14.90;;;;;;;19.81;100.00;95562.56;5074334;28;20568;-83
2022/08/20 03:55:04;;;;;;;16.75;15.15;;;;;;;19.83;100.00;95561.28;5073345;28;20293;-84
2022/08/20 03:57:31;;;;;;;15.63;14.23;;;;;;;19.83;100.00;95565.69;5074636;28;20193;-83
2022/08/20 03:59:57;;;;;;;16.58;15.07;;;;;;;19.78;100.00;95571.66;5074862;28;20193;-84
2022/08/20 04:02:24;;;;;;;15.95;14.55;;;;;;;19.78;100.00;95565.63;5074386;28;20278;-82
2022/08/20 04:04:51;;;;;;;16.00;14.55;;;;;;;19.76;100.00;95565.88;5074283;28;20657;-82
2022/08/20 04:07:24;;;;;;;16.52;14.95;;;;;;;19.73;100.00;95568.16;5074649;28;20197;-83
2022/08/20 04:09:50;;;;;;;16.23;14.77;;;;;;;19.75;100.00;95563.47;5074955;28;20227;-84
2022/08/20 04:12:17;;;;;;;16.23;14.73;;;;;;;19.71;100.00;95567.59;5074227;28;20278;-83
2022/08/20 04:14:43;;;;;;;15.50;14.10;;;;;;;19.72;100.00;95572.56;5074878;28;20278;-83
2022/08/20 04:17:12;;;;;;;15.52;14.13;;;;;;;19.71;100.00;95572.81;5074610;28;20200;-83
2022/08/20 04:19:40;;;;;;;16.23;14.55;;;;;;;19.63;100.00;95574.75;5074259;28;20193;-84
2022/08/20 04:22:08;;;;;;;16.40;15.00;;;;;;;19.71;100.00;95568.38;5073955;28;20220;-83
2022/08/20 04:24:36;;;;;;;15.45;14.15;;;;;;;19.74;100.00;95577.56;5074043;28;20349;-83
2022/08/20 04:27:03;;;;;;;16.25;14.63;;;;;;;19.73;100.00;95576.78;5074118;28;20193;-84
2022/08/20 04:29:31;;;;;;;15.40;14.00;;;;;;;19.76;100.00;95575.53;5074576;28;20196;-84
2022/08/20 04:31:59;;;;;;;17.13;15.45;;;;;;;19.75;100.00;95585.19;5073341;28;20225;-84
2022/08/20 04:34:25;;;;;;;16.17;14.63;;;;;;;19.74;100.00;95591.44;5072939;28;20751;-83
2022/08/20 04:36:52;;;;;;;15.60;14.05;;;;;;;19.69;100.00;95590.53;5072962;28;20200;-84
2022/08/20 04:39:19;;;;;;;16.08;14.57;;;;;;;19.66;100.00;95592.56;5073248;28;20197;-84
2022/08/20 04:41:45;;;;;;;15.88;14.30;;;;;;;19.63;100.00;95597.47;5072170;28;20216;-85
2022/08/20 04:44:12;;;;;;;15.52;14.15;;;;;;;19.61;100.00;95595.13;5072865;28;20345;-84
2022/08/20 04:46:39;;;;;;;15.23;13.93;;;;;;;19.65;100.00;95596.22;5073427;28;20201;-84
2022/08/20 04:49:06;;;;;;;15.68;14.23;;;;;;;19.68;100.00;95594.97;5073426;28;20200;-84
2022/08/20 04:51:33;;;;;;;15.70;14.23;;;;;;;19.66;100.00;95597.81;5073177;28;20274;-84
2022/08/20 04:54:01;;;;;;;16.48;14.98;;;;;;;19.67;100.00;95601.22;5072843;28;20292;-84
2022/08/20 04:56:33;;;;;;;15.57;14.07;;;;;;;19.63;100.00;95593.03;5073361;28;20201;-84
2022/08/20 04:59:01;;;;;;;15.32;13.93;;;;;;;19.54;100.00;95597.06;5073058;28;20188;-85
2022/08/20 05:01:28;;;;;;;14.80;13.50;;;;;;;19.61;100.00;95595.13;5073033;28;20217;-85
2022/08/20 05:03:55;;;;;;;15.32;13.80;;;;;;;19.69;100.00;95600.97;5072285;28;20653;-83
2022/08/20 05:06:24;;;;;;;15.00;13.70;;;;;;;19.68;100.00;95594.97;5073140;28;20246;-85
2022/08/20 05:08:50;;;;;;;16.35;14.75;;;;;;;19.69;100.00;95603.59;5072777;28;20254;-84
2022/08/20 05:11:17;;;;;;;15.48;14.15;;;;;;;19.62;100.00;95603.75;5071725;28;20225;-85
2022/08/20 05:13:45;;;;;;;14.88;13.48;;;;;;;19.53;100.00;95602.50;5071937;28;20236;-84
2022/08/20 05:16:11;;;;;;;14.90;13.32;;;;;;;19.56;100.00;95605.47;5072789;28;20201;-84
2022/08/20 05:18:37;;;;;;;15.43;14.02;;;;;;;19.56;100.00;95607.28;5072803;28;20254;-84
2022/08/20 05:21:04;;;;;;;14.90;13.50;;;;;;;19.58;100.00;95618.28;5072702;28;20259;-84
2022/08/20 05:23:32;;;;;;;14.50;13.13;;;;;;;19.51;100.00;95617.63;5072742;28;20250;-84
2022/08/20 05:25:58;;;;;;;15.13;13.82;;;;;;;19.55;100.00;95614.31;5072556;28;20193;-83
2022/08/20 05:28:29;;;;;;;15.18;13.88;;;;;;;19.65;100.00;95613.72;5072878;28;20696;-83
2022/08/20 05:30:56;;;;;;;14.98;13.60;;;;;;;19.67;100.00;95620.28;5072730;28;20230;-83
2022/08/20 05:33:23;;;;;;;15.15;13.85;;;;;;;19.58;100.00;95621.69;5073220;28;20208;-83
2022/08/20 05:35:51;;;;;;;15.65;14.20;;;;;;;19.66;100.00;95623.13;5074954;28;20205;-83
2022/08/20 05:38:20;;;;;;;14.95;13.65;;;;;;;19.66;100.00;95633.59;5074101;28;20201;-84
2022/08/20 05:40:48;;;;;;;14.63;13.30;;;;;;;19.73;100.00;95631.63;5074134;28;20217;-83
2022/08/20 05:43:15;;;;;;;14.63;13.40;;;;;;;19.72;100.00;95626.66;5075186;28;20205;-84
2022/08/20 05:45:43;;;;;;;14.40;13.13;;;;;;;19.74;100.00;95625.41;5073265;28;20220;-84
2022/08/20 05:48:13;;;;;;;13.93;12.75;;;;;;;19.77;100.00;95630.16;5073341;28;20249;-83
2022/08/20 05:50:41;;;;;;;14.68;13.30;;;;;;;19.81;100.00;95636.50;5073124;28;20220;-83
2022/08/20 05:53:07;;;;;;;14.73;13.35;;;;;;;19.82;100.00;95632.09;5073136;28;20660;-83
2022/08/20 05:55:36;;;;;;;15.95;13.05;;;;;;;19.83;100.00;95633.63;5072897;28;20224;-83
2022/08/20 05:58:06;;;;;;;14.38;13.07;;;;;;;19.84;100.00;95645.69;5063172;28;20197;-84
2022/08/20 06:00:34;;;;;;;13.85;12.60;;;;;;;19.82;100.00;95638.06;5073976;28;20311;-84
2022/08/20 06:05:46;;;;;;;13.85;12.63;;;;;;;19.81;100.00;95639.13;5068291;28;20313;-82
2022/08/20 06:08:12;;;;;;;14.55;13.18;;;;;;;19.80;100.00;95640.16;5073479;28;20197;-83
2022/08/20 06:10:40;;;;;;;13.75;12.38;;;;;;;19.79;100.00;95643.78;5072392;28;20274;-83
2022/08/20 06:13:07;;;;;;;14.43;13.13;;;;;;;19.81;100.00;95646.16;5072629;28;20219;-83
2022/08/20 06:15:34;;;;;;;13.50;12.20;;;;;;;19.82;100.00;95645.16;5064290;28;20228;-84
2022/08/20 06:18:01;;;;;;;14.02;12.63;;;;;;;19.86;100.00;95648.84;5061681;28;20193;-83
2022/08/20 06:20:28;;;;;;;14.48;12.43;;;;;;;19.90;100.00;95647.38;5073497;28;20274;-83
2022/08/20 06:22:56;;;;;;;14.05;12.85;;;;;;;19.88;100.00;95660.66;5074784;28;20189;-83
2022/08/20 06:25:22;;;;;;;13.25;12.00;;;;;;;19.87;100.00;95653.84;5074654;28;20701;-83
2022/08/20 06:27:49;;;;;;;14.02;12.82;;;;;;;19.90;100.00;95658.63;5073766;28;20193;-83
2022/08/20 06:30:16;;;;;;;14.02;12.82;;;;;;;19.93;100.00;95662.59;5072855;28;20668;-84
2022/08/20 06:32:42;;;;;;;13.57;12.38;;;;;;;19.96;100.00;95660.31;5073894;28;20304;-84
2022/08/20 06:35:10;;;;;;;12.38;11.38;;;;;;;19.97;100.00;95663.72;5073745;28;20897;-84
2022/08/20 06:37:39;;;;;;;13.02;11.75;;;;;;;19.96;100.00;95651.69;5067029;28;20579;-83
2022/08/20 06:40:10;;;;;;;12.43;11.35;;;;;;;20.00;100.00;95653.59;5073668;28;20199;-84
2022/08/20 06:42:38;;;;;;;12.40;11.20;;;;;;;19.98;100.00;95653.03;5067840;28;20189;-84
2022/08/20 06:45:05;;;;;;;12.48;11.38;;;;;;;19.97;100.00;95659.28;5073860;28;20221;-83
2022/08/20 06:47:34;;;;;;;13.10;11.98;;;;;;;19.98;100.00;95660.88;5068873;28;20228;-84
2022/08/20 06:50:00;;;;;;;11.88;10.85;;;;;;;20.01;100.00;95655.16;5073830;28;20193;-84
2022/08/20 06:52:27;;;;;;;11.98;10.85;;;;;;;20.01;100.00;95659.63;5073301;28;20271;-84
2022/08/20 06:54:53;;;;;;;11.52;10.52;;;;;;;20.04;100.00;95666.19;5073848;28;20277;-83
2022/08/20 06:57:21;;;;;;;11.70;10.70;;;;;;;20.08;100.00;95673.31;5073930;28;20209;-83
2022/08/20 06:59:47;;;;;;;12.13;11.02;;;;;;;20.08;100.00;95664.69;5073712;28;20197;-84
2022/08/20 07:02:14;;;;;;;12.38;11.27;;;;;;;20.15;100.00;95675.81;5073400;28;20724;-82
2022/08/20 07:04:40;;;;;;;11.65;10.52;;;;;;;20.23;100.00;95675.41;5073646;28;20220;-84
2022/08/20 07:07:15;;;;;;;11.93;10.50;;;;;;;20.24;100.00;95669.16;5073870;28;20251;-84
2022/08/20 07:09:42;;;;;;;11.60;10.60;;;;;;;20.23;100.00;95675.41;5068010;28;20246;-84
2022/08/20 07:12:08;;;;;;;10.82;9.93;;;;;;;20.23;100.00;95681.44;5072919;28;20303;-83
2022/08/20 07:14:36;;;;;;;11.00;9.90;;;;;;;20.26;100.00;95682.78;5072841;28;20581;-84
2022/08/20 07:17:03;;;;;;;10.88;9.93;;;;;;;20.30;100.00;95681.31;5073695;28;20197;-83
2022/08/20 07:19:30;;;;;;;11.00;9.90;;;;;;;20.26;100.00;95690.63;5072107;28;20238;-84
2022/08/20 07:21:56;;;;;;;11.20;10.05;;;;;;;20.27;100.00;95673.94;5072825;28;20209;-83
2022/08/20 07:24:22;;;;;;;11.45;10.30;;;;;;;20.23;100.00;95685.88;5073496;28;20254;-84
2022/08/20 07:26:50;;;;;;;10.90;9.90;;;;;;;20.22;100.00;95684.28;5073967;28;20251;-83
2022/08/20 07:29:17;;;;;;;10.02;9.23;;;;;;;20.26;100.00;95686.22;5073041;28;20279;-83
2022/08/20 07:34:30;;;;;;;10.63;9.73;;;;;;;20.40;100.00;95683.34;5071393;28;20453;-83
2022/08/20 07:36:59;;;;;;;10.02;9.23;;;;;;;20.45;99.76;95686.03;5072531;28;20271;-83
2022/08/20 07:39:25;;;;;;;9.73;8.88;;;;;;;20.47;99.26;95687.38;5072814;28;20224;-82
2022/08/20 07:42:01;;;;;;;10.23;9.32;;;;;;;20.52;99.62;95697.16;5073053;28;20200;-82
2022/08/20 07:44:28;;;;;;;9.45;8.65;;;;;;;20.50;99.09;95688.75;5072902;28;20281;-83
2022/08/20 07:46:57;;;;;;;10.05;9.20;;;;;;;20.49;100.00;95697.63;5073433;28;20200;-83
2022/08/20 07:49:24;;;;;;;9.70;8.75;;;;;;;20.31;99.16;95699.38;5072719;28;20690;-82
2022/08/20 07:51:50;;;;;;;9.32;8.50;;;;;;;20.34;99.28;95695.50;5072011;28;20745;-82
2022/08/20 07:54:16;;;;;;;9.95;9.00;;;;;;;20.33;99.01;95702.56;5072751;28;20306;-82
2022/08/20 07:56:43;;;;;;;9.52;8.73;;;;;;;20.37;99.49;95707.34;5072838;28;20247;-83
2022/08/20 07:59:11;;;;;;;9.52;8.60;;;;;;;20.42;98.51;95702.19;5073182;28;20189;-83
2022/08/20 08:01:38;;;;;;;8.45;7.68;;;;;;;20.46;98.21;95709.34;5072800;28;20767;-84
2022/08/20 08:04:05;;;;;;;9.23;8.52;;;;;;;20.49;99.28;95708.09;5072843;28;20274;-83
2022/08/20 08:06:32;;;;;;;9.15;8.45;;;;;;;20.53;98.42;95714.44;5071252;28;20638;-84
2022/08/20 08:09:04;;;;;;;9.43;8.52;;;;;;;20.56;98.29;95711.34;5072769;28;20197;-83
2022/08/20 08:11:33;;;;;;;9.73;8.93;;;;;;;20.57;97.73;95700.66;5071873;28;20630;-82
2022/08/20 08:14:00;;;;;;;8.40;7.63;;;;;;;20.66;97.58;95708.91;5072698;28;20255;-83
2022/08/20 08:16:29;;;;;;;8.63;7.88;;;;;;;20.67;96.45;95694.78;5073247;28;20204;-83
2022/08/20 08:18:57;;;;;;;8.75;7.95;;;;;;;20.61;94.93;95695.72;5072627;28;20192;-84
2022/08/20 08:21:25;;;;;;;8.80;7.97;;;;;;;20.62;95.45;95700.72;5066429;28;20805;-83
2022/08/20 08:23:52;;;;;;;8.32;7.63;;;;;;;20.55;95.30;95707.16;5067951;28;20259;-82
2022/08/20 08:26:19;;;;;;;8.38;7.68;;;;;;;20.52;96.37;95715.47;5068902;28;20850;-83
2022/08/20 08:28:46;;;;;;;9.02;8.13;;;;;;;20.50;96.26;95717.53;5069575;28;20656;-83
2022/08/20 08:31:15;;;;;;;9.05;8.18;;;;;;;20.53;96.56;95711.81;5062380;28;20752;-82
2022/08/20 08:33:42;;;;;;;8.85;8.05;;;;;;;20.55;96.34;95718.41;5061855;28;20207;-81
2022/08/20 08:36:14;;;;;;;9.13;8.25;;;;;;;20.58;96.17;95715.31;5068642;28;20193;-82
2022/08/20 08:38:45;;;;;;;8.57;7.88;;;;;;;20.55;96.47;95726.25;5068961;28;20199;-82
2022/08/20 08:41:18;;;;;;;8.27;7.50;;;;;;;20.57;95.89;95729.44;5067904;28;20209;-81
2022/08/20 08:43:51;;;;;;;8.63;7.90;;;;;;;20.60;95.31;95736.00;5062088;28;20220;-82
2022/08/20 08:46:23;;;;;;;8.70;7.80;;;;;;;20.54;95.50;95731.72;5068662;28;20215;-82
2022/08/20 08:48:53;;;;;;;8.57;7.88;;;;;;;20.54;96.60;95729.91;5068915;28;20215;-82
2022/08/20 08:51:28;;;;;;;8.65;7.95;;;;;;;20.54;96.28;95729.91;5067709;28;20208;-81
2022/08/20 08:53:57;;;;;;;8.65;7.85;;;;;;;20.39;95.54;95740.09;5068187;28;20314;-83
2022/08/20 08:56:30;;;;;;;8.70;8.00;;;;;;;20.43;95.69;95741.19;5068592;28;20201;-82
2022/08/20 08:59:07;;;;;;;8.77;8.07;;;;;;;20.41;94.14;95734.59;5070071;28;20193;-82
2022/08/20 09:01:41;;;;;;;8.70;7.80;;;;;;;20.49;95.81;95734.25;5068953;28;20304;-82
2022/08/20 09:04:08;;;;;;;12.15;8.85;;;;;;;20.49;96.39;95739.47;5068961;28;20262;-82
2022/08/20 09:06:39;;;;;;;12.15;9.77;;;;;;;20.52;94.96;95744.25;5068116;28;20197;-82
2022/08/20 09:09:15;;;;;;;11.88;8.95;;;;;;;20.51;96.26;95738.22;5069495;28;20189;-83
2022/08/20 09:11:47;;;;;;;10.02;9.13;;;;;;;20.46;97.49;95740.72;5068185;28;20255;-84
2022/08/20 09:14:15;;;;;;;10.07;9.00;;;;;;;20.51;96.01;95743.44;5067056;28;20671;-83
2022/08/20 09:16:45;;;;;;;9.35;8.25;;;;;;;20.59;96.67;95748.28;5068880;28;20193;-84
2022/08/20 09:19:23;;;;;;;11.35;10.30;;;;;;;20.58;97.00;95741.50;5068324;28;20204;-83
2022/08/20 09:24:32;;;;;;;13.32;11.90;;;;;;;20.67;95.98;95732.22;5066285;28;20220;-83
2022/08/20 09:26:59;;;;;;;12.68;11.48;;;;;;;20.63;96.93;95738.16;5071032;28;20208;-84
2022/08/20 09:29:25;;;;;;;10.70;9.70;;;;;;;20.67;96.44;95737.44;5071541;28;20204;-83
2022/08/20 09:32:04;;;;;;;12.63;11.52;;;;;;;20.63;96.80;95743.38;5066915;28;20314;-83
2022/08/20 09:34:30;;;;;;;10.23;9.35;;;;;;;20.65;96.91;95743.94;5070249;28;20220;-83
2022/08/20 09:36:56;;;;;;;9.95;9.02;;;;;;;20.63;96.95;95744.19;5070468;28;20197;-84
2022/08/20 09:39:23;;;;;;;9.77;8.98;;;;;;;20.64;96.97;95740.53;5071596;28;20258;-84
2022/08/20 09:41:50;;;;;;;9.85;9.05;;;;;;;20.66;97.50;95737.69;5071247;28;20238;-84
2022/08/20 09:44:17;;;;;;;9.60;8.70;;;;;;;20.69;97.40;95734.59;5071271;28;20657;-83
2022/08/20 09:46:43;;;;;;;10.20;9.38;;;;;;;20.73;98.99;95732.31;5071343;28;20201;-84
2022/08/20 09:49:10;;;;;;;10.90;10.00;;;;;;;20.67;100.00;95734.84;5073204;28;20204;-83
2022/08/20 09:51:36;;;;;;;11.70;10.63;;;;;;;20.72;100.00;95728.09;5073898;28;20216;-84
2022/08/20 09:54:03;;;;;;;11.60;10.70;;;;;;;20.77;100.00;95729.00;5077497;28;20305;-84
2022/08/20 09:56:33;;;;;;;10.63;9.70;;;;;;;20.83;99.82;95730.63;5076512;28;20593;-84
2022/08/20 09:59:01;;;;;;;11.18;10.10;;;;;;;20.83;99.90;95724.59;5079244;28;20197;-84
2022/08/20 10:01:27;;;;;;;11.57;10.57;;;;;;;20.79;100.00;95724.28;5077331;28;20306;-84
2022/08/20 10:03:54;;;;;;;12.02;10.82;;;;;;;20.76;100.00;95726.59;5077249;28;20595;-84
2022/08/20 10:06:20;;;;;;;13.90;12.70;;;;;;;20.83;100.00;95724.59;5076508;28;20266;-84
2022/08/20 10:08:47;;;;;;;11.90;10.98;;;;;;;20.86;100.00;95718.91;5069588;28;20605;-83
2022/08/20 10:11:14;;;;;;;13.35;12.25;;;;;;;20.93;98.11;95711.72;5075178;28;20208;-84
2022/08/20 10:13:40;;;;;;;17.30;15.88;;;;;;;20.93;96.03;95711.72;5075622;28;20213;-84
2022/08/20 10:16:08;;;;;;;13.65;12.45;;;;;;;20.95;94.44;95715.69;5075944;28;20239;-84
2022/08/20 10:18:36;;;;;;;25.23;22.83;;;;;;;20.97;96.37;95718.06;5075410;28;20201;-84
2022/08/20 10:21:02;;;;;;;14.82;13.52;;;;;;;21.00;94.84;95713.13;5074708;28;20212;-84
2022/08/20 10:23:29;;;;;;;14.63;13.27;;;;;;;21.00;95.50;95718.34;5074085;28;20200;-83
2022/08/20 10:25:55;;;;;;;15.38;13.85;;;;;;;20.99;94.59;95719.38;5074685;28;20193;-84
2022/08/20 10:28:22;;;;;;;13.77;12.65;;;;;;;21.00;94.13;95717.56;5075418;28;20204;-84
2022/08/20 10:30:48;;;;;;;14.63;13.35;;;;;;;21.03;93.15;95717.88;5069580;28;20739;-84
2022/08/20 10:33:16;;;;;;;19.13;17.38;;;;;;;20.98;93.79;95715.16;5075345;28;20266;-83
2022/08/20 10:35:42;;;;;;;17.17;15.52;;;;;;;21.03;94.22;95717.88;5074868;28;20217;-84
2022/08/20 10:38:09;;;;;;;17.48;15.88;;;;;;;21.10;96.00;95724.78;5075577;28;20197;-84
2022/08/20 10:40:35;;;;;;;14.52;13.32;;;;;;;21.08;96.84;95719.78;5074495;28;20679;-84
2022/08/20 10:43:02;;;;;;;16.15;14.75;;;;;;;21.13;97.17;95725.09;5075275;28;20197;-83
2022/08/20 10:45:28;;;;;;;13.38;12.18;;;;;;;21.19;95.35;95723.34;5074930;28;20712;-83
2022/08/20 10:47:55;;;;;;;13.93;12.73;;;;;;;21.18;96.68;95714.69;5074831;28;20263;-83
2022/08/20 10:50:22;;;;;;;14.93;13.52;;;;;;;21.10;98.27;95716.94;5074209;28;20192;-84
2022/08/20 10:52:49;;;;;;;15.00;13.82;;;;;;;20.98;100.00;95715.16;5068953;28;20213;-83
2022/08/20 10:55:16;;;;;;;28.75;25.98;;;;;;;20.98;100.00;95730.88;5074130;28;20359;-84
2022/08/20 10:57:43;;;;;;;18.20;16.40;;;;;;;21.04;100.00;95716.84;5077284;28;20246;-83
2022/08/20 11:00:14;;;;;;;18.02;16.63;;;;;;;21.06;100.00;95721.06;5074627;28;20193;-84
2022/08/20 11:02:40;;;;;;;16.15;14.73;;;;;;;21.13;100.00;95719.06;5073737;28;20209;-83
2022/08/20 11:05:08;;;;;;;16.38;14.68;;;;;;;21.02;100.00;95715.50;5075095;28;20660;-83
2022/08/20 11:07:38;;;;;;;16.17;14.80;;;;;;;20.97;100.00;95712.81;5074059;28;20201;-84
2022/08/20 11:10:06;;;;;;;16.20;14.70;;;;;;;21.00;100.00;95715.72;5074153;28;20262;-83
2022/08/20 11:12:33;;;;;;;14.20;13.10;;;;;;;21.02;100.00;95713.66;5073447;28;20217;-83
2022/08/20 11:14:59;;;;;;;15.40;13.80;;;;;;;20.93;100.00;95722.97;5072588;28;20216;-83
2022/08/20 11:17:27;;;;;;;14.73;13.43;;;;;;;20.88;100.00;95715.03;5073134;28;20623;-83
2022/08/20 11:19:55;;;;;;;14.07;12.77;;;;;;;20.91;100.00;95711.16;5067715;28;20247;-83
2022/08/20 11:22:21;;;;;;;14.43;13.13;;;;;;;20.86;100.00;95714.47;5072603;28;20228;-83
2022/08/20 11:24:50;;;;;;;14.68;13.48;;;;;;;20.91;100.00;95703.28;5072062;28;20225;-84
2022/08/20 11:27:21;;;;;;;13.90;12.60;;;;;;;20.97;100.00;95702.34;5071870;28;20875;-82
2022/08/20 11:29:48;;;;;;;14.52;13.40;;;;;;;21.12;100.00;95702.56;5071907;28;20189;-83